createdAt,value
2017-12-08T00:00:32.237Z,99.65
2017-12-08T00:01:12.775Z,99.84
2017-12-08T00:01:53.313Z,99.74
2017-12-08T00:02:33.880Z,99.74
2017-12-08T00:03:14.445Z,99.65
2017-12-08T00:03:54.958Z,99.74
2017-12-08T00:04:35.515Z,99.55
2017-12-08T00:05:16.026Z,99.93
2017-12-08T00:05:56.799Z,99.99
2017-12-08T00:06:37.355Z,99.74
2017-12-08T00:07:18.016Z,99.99
2017-12-08T00:07:58.541Z,99.99
2017-12-08T00:08:39.063Z,99.99
2017-12-08T00:09:19.606Z,99.99
2017-12-08T00:10:00.185Z,99.99
2017-12-08T00:10:40.782Z,99.99
2017-12-08T00:11:21.241Z,99.99
2017-12-08T00:12:01.824Z,99.99
2017-12-08T00:12:42.360Z,99.99
2017-12-08T00:13:22.898Z,99.99
2017-12-08T00:14:03.472Z,99.99
2017-12-08T00:14:44.017Z,99.99
2017-12-08T00:15:24.612Z,99.99
2017-12-08T00:16:05.152Z,99.99
2017-12-08T00:16:45.721Z,99.99
2017-12-08T00:17:26.314Z,99.99
2017-12-08T00:18:06.822Z,99.99
2017-12-08T00:18:47.331Z,99.99
2017-12-08T00:19:27.867Z,99.99
2017-12-08T00:20:08.378Z,99.99
2017-12-08T00:20:48.992Z,99.99
2017-12-08T00:21:29.507Z,99.99
2017-12-08T00:22:10.058Z,99.99
2017-12-08T00:22:50.624Z,99.99
2017-12-08T00:23:31.140Z,99.99
2017-12-08T00:24:11.774Z,99.99
2017-12-08T00:24:52.318Z,99.99
2017-12-08T00:25:32.869Z,99.99
2017-12-08T00:26:13.450Z,99.99
2017-12-08T00:26:53.944Z,99.99
2017-12-08T00:27:34.468Z,99.99
2017-12-08T00:28:15.050Z,99.99
2017-12-08T00:28:55.582Z,99.99
2017-12-08T00:29:36.137Z,99.99
2017-12-08T00:30:16.653Z,99.99
2017-12-08T00:30:57.203Z,99.99
2017-12-08T00:31:37.731Z,99.99
2017-12-08T00:32:18.243Z,99.99
2017-12-08T00:32:58.789Z,99.99
2017-12-08T00:33:39.357Z,99.99
2017-12-08T00:34:19.888Z,99.99
2017-12-08T00:35:00.484Z,99.99
2017-12-08T00:35:41.001Z,99.99
2017-12-08T00:36:21.593Z,99.99
2017-12-08T00:37:02.073Z,99.99
2017-12-08T00:37:42.615Z,99.99
2017-12-08T00:38:23.186Z,99.99
2017-12-08T00:39:03.750Z,99.99
2017-12-08T00:39:44.250Z,99.99
2017-12-08T00:40:24.797Z,99.99
2017-12-08T00:41:05.353Z,99.99
2017-12-08T00:41:45.898Z,99.99
2017-12-08T00:42:26.455Z,99.99
2017-12-08T00:43:06.942Z,99.99
2017-12-08T00:43:47.478Z,99.99
2017-12-08T00:44:28.008Z,99.99
2017-12-08T00:45:08.566Z,99.99
2017-12-08T00:45:49.119Z,99.99
2017-12-08T00:46:29.626Z,99.99
2017-12-08T00:47:10.188Z,99.99
2017-12-08T00:47:50.695Z,99.99
2017-12-08T00:48:31.231Z,99.99
2017-12-08T00:49:11.759Z,99.99
2017-12-08T00:49:52.337Z,99.99
2017-12-08T00:50:32.896Z,99.99
2017-12-08T00:51:13.422Z,99.99
2017-12-08T00:51:53.972Z,99.99
2017-12-08T00:52:34.536Z,99.99
2017-12-08T00:53:15.142Z,99.99
2017-12-08T00:53:55.676Z,99.99
2017-12-08T00:54:36.201Z,99.99
2017-12-08T00:55:16.754Z,99.99
2017-12-08T00:55:57.296Z,99.99
2017-12-08T00:56:37.810Z,99.99
2017-12-08T00:57:18.366Z,99.99
2017-12-08T00:57:58.922Z,99.99
2017-12-08T00:58:39.488Z,99.99
2017-12-08T00:59:20.034Z,99.99
2017-12-08T01:00:00.554Z,99.99
2017-12-08T01:00:41.132Z,99.99
2017-12-08T01:01:21.656Z,99.99
2017-12-08T01:02:02.168Z,99.99
2017-12-08T01:02:42.714Z,99.99
2017-12-08T01:03:23.275Z,99.99
2017-12-08T01:04:03.784Z,99.99
2017-12-08T01:04:44.329Z,99.65
2017-12-08T01:05:24.864Z,99.99
2017-12-08T01:06:05.394Z,99.99
2017-12-08T01:06:46.119Z,99.93
2017-12-08T01:07:26.649Z,99.55
2017-12-08T01:08:07.196Z,99.08
2017-12-08T01:08:47.751Z,99.17
2017-12-08T01:09:28.303Z,99.17
2017-12-08T01:10:08.846Z,99.08
2017-12-08T01:10:49.399Z,99.36
2017-12-08T01:11:29.936Z,98.98
2017-12-08T01:12:10.506Z,99.36
2017-12-08T01:12:51.041Z,99.27
2017-12-08T01:13:31.546Z,99.27
2017-12-08T01:14:12.099Z,99.17
2017-12-08T01:14:52.651Z,98.6
2017-12-08T01:15:33.177Z,98.69
2017-12-08T01:16:13.724Z,98.32
2017-12-08T01:16:54.282Z,98.69
2017-12-08T01:17:34.832Z,98.13
2017-12-08T01:18:15.368Z,98.5
2017-12-08T01:18:55.936Z,98.18
2017-12-08T01:19:36.486Z,98.13
2017-12-08T01:20:17.047Z,98.13
2017-12-08T01:20:57.585Z,98.13
2017-12-08T01:21:38.117Z,98.41
2017-12-08T01:22:18.671Z,98.74
2017-12-08T01:22:59.234Z,98.74
2017-12-08T01:23:39.787Z,98.27
2017-12-08T01:24:20.353Z,98.36
2017-12-08T01:25:00.900Z,98.55
2017-12-08T01:25:41.441Z,98.55
2017-12-08T01:26:21.981Z,97.7
2017-12-08T01:27:02.564Z,98.55
2017-12-08T01:27:43.090Z,98.46
2017-12-08T01:28:23.636Z,98.08
2017-12-08T01:29:04.187Z,97.7
2017-12-08T01:29:44.716Z,97.7
2017-12-08T01:30:25.234Z,97.89
2017-12-08T01:31:05.768Z,97.6
2017-12-08T01:31:46.328Z,97.89
2017-12-08T01:32:26.902Z,97.89
2017-12-08T01:33:07.448Z,97.7
2017-12-08T01:33:47.970Z,97.89
2017-12-08T01:34:28.501Z,97.41
2017-12-08T01:35:09.078Z,96.94
2017-12-08T01:35:49.580Z,97.51
2017-12-08T01:36:30.133Z,97.13
2017-12-08T01:37:10.694Z,96.55
2017-12-08T01:37:51.236Z,96.65
2017-12-08T01:38:31.797Z,96.55
2017-12-08T01:39:12.345Z,96.08
2017-12-08T01:39:52.904Z,96.84
2017-12-08T01:40:33.458Z,96.84
2017-12-08T01:41:14.037Z,96.84
2017-12-08T01:41:54.565Z,97.51
2017-12-08T01:42:35.099Z,97.51
2017-12-08T01:43:15.683Z,97.79
2017-12-08T01:43:56.220Z,97.7
2017-12-08T01:44:36.775Z,97.79
2017-12-08T01:45:17.315Z,97.79
2017-12-08T01:45:57.843Z,98.08
2017-12-08T01:46:38.407Z,97.79
2017-12-08T01:47:18.946Z,98.27
2017-12-08T01:47:59.493Z,98.08
2017-12-08T01:48:40.036Z,98.55
2017-12-08T01:49:20.589Z,98.27
2017-12-08T01:50:01.141Z,98.27
2017-12-08T01:50:41.705Z,97.79
2017-12-08T01:51:22.250Z,97.41
2017-12-08T01:52:02.837Z,97.6
2017-12-08T01:52:43.352Z,97.89
2017-12-08T01:53:23.895Z,97.99
2017-12-08T01:54:04.433Z,97.51
2017-12-08T01:54:44.959Z,97.22
2017-12-08T01:55:25.533Z,97.31
2017-12-08T01:56:06.074Z,97.51
2017-12-08T01:56:46.636Z,96.84
2017-12-08T01:57:27.181Z,97.22
2017-12-08T01:58:07.734Z,97.41
2017-12-08T01:58:48.285Z,97.99
2017-12-08T01:59:28.829Z,97.89
2017-12-08T02:00:09.380Z,97.7
2017-12-08T02:00:49.933Z,97.31
2017-12-08T02:01:30.507Z,97.51
2017-12-08T02:02:11.062Z,97.31
2017-12-08T02:02:51.620Z,96.65
2017-12-08T02:03:32.178Z,96.75
2017-12-08T02:04:12.751Z,96.46
2017-12-08T02:04:53.304Z,95.79
2017-12-08T02:05:33.835Z,96.08
2017-12-08T02:06:14.390Z,96.08
2017-12-08T02:06:54.964Z,95.79
2017-12-08T02:07:35.529Z,95.51
2017-12-08T02:08:16.084Z,95.7
2017-12-08T02:08:56.648Z,96.08
2017-12-08T02:09:37.204Z,95.6
2017-12-08T02:10:17.771Z,95.89
2017-12-08T02:10:58.341Z,95.51
2017-12-08T02:11:38.899Z,95.41
2017-12-08T02:12:19.460Z,95.41
2017-12-08T02:13:00.017Z,95.41
2017-12-08T02:13:40.572Z,95.22
2017-12-08T02:14:21.103Z,95.51
2017-12-08T02:15:01.648Z,95.6
2017-12-08T02:15:42.200Z,95.98
2017-12-08T02:16:22.742Z,96.36
2017-12-08T02:17:03.292Z,95.98
2017-12-08T02:17:43.832Z,95.89
2017-12-08T02:18:24.381Z,95.89
2017-12-08T02:19:04.928Z,96.08
2017-12-08T02:19:45.481Z,96.27
2017-12-08T02:20:26.022Z,96.08
2017-12-08T02:21:06.575Z,95.22
2017-12-08T02:21:47.156Z,95.32
2017-12-08T02:22:27.655Z,95.32
2017-12-08T02:23:08.211Z,95.41
2017-12-08T02:23:48.779Z,95.22
2017-12-08T02:24:29.351Z,94.65
2017-12-08T02:25:09.880Z,95.6
2017-12-08T02:25:50.431Z,95.22
2017-12-08T02:26:30.987Z,95.32
2017-12-08T02:27:11.540Z,95.41
2017-12-08T02:27:52.083Z,95.12
2017-12-08T02:28:32.649Z,94.74
2017-12-08T02:29:13.211Z,95.22
2017-12-08T02:29:53.732Z,95.41
2017-12-08T02:30:34.281Z,95.51
2017-12-08T02:31:14.844Z,95.12
2017-12-08T02:31:55.409Z,95.32
2017-12-08T02:32:35.951Z,94.46
2017-12-08T02:33:16.503Z,94.51
2017-12-08T02:33:57.051Z,95.03
2017-12-08T02:34:37.599Z,94.84
2017-12-08T02:35:18.160Z,95.32
2017-12-08T02:35:58.697Z,95.12
2017-12-08T02:36:39.247Z,95.32
2017-12-08T02:37:19.829Z,95.12
2017-12-08T02:38:00.380Z,95.12
2017-12-08T02:38:40.935Z,95.41
2017-12-08T02:39:21.519Z,95.41
2017-12-08T02:40:02.124Z,95.03
2017-12-08T02:40:42.617Z,94.74
2017-12-08T02:41:23.172Z,94.7
2017-12-08T02:42:03.727Z,94.84
2017-12-08T02:42:44.298Z,95.03
2017-12-08T02:43:24.850Z,94.46
2017-12-08T02:44:05.405Z,95.22
2017-12-08T02:44:45.959Z,95.03
2017-12-08T02:45:26.533Z,94.93
2017-12-08T02:46:07.098Z,94.65
2017-12-08T02:46:47.644Z,95.27
2017-12-08T02:47:28.206Z,94.32
2017-12-08T02:48:08.779Z,94.51
2017-12-08T02:48:49.347Z,94.51
2017-12-08T02:49:29.929Z,94.32
2017-12-08T02:50:10.493Z,94.65
2017-12-08T02:50:51.049Z,94.98
2017-12-08T02:51:31.600Z,94.74
2017-12-08T02:52:12.165Z,94.84
2017-12-08T02:52:52.763Z,95.22
2017-12-08T02:53:33.302Z,95.03
2017-12-08T02:54:13.843Z,95.03
2017-12-08T02:54:54.412Z,94.89
2017-12-08T02:55:34.989Z,94.51
2017-12-08T02:56:15.546Z,94.7
2017-12-08T02:56:56.096Z,94.74
2017-12-08T02:57:36.656Z,95.12
2017-12-08T02:58:17.209Z,95.12
2017-12-08T02:58:57.766Z,95.17
2017-12-08T02:59:38.322Z,95.36
2017-12-08T03:00:18.876Z,95.41
2017-12-08T03:00:59.437Z,95.46
2017-12-08T03:01:39.996Z,96.03
2017-12-08T03:02:20.558Z,96.6
2017-12-08T03:03:01.091Z,96.41
2017-12-08T03:03:41.632Z,96.27
2017-12-08T03:04:22.194Z,96.32
2017-12-08T03:05:02.768Z,96.36
2017-12-08T03:05:43.346Z,97.08
2017-12-08T03:06:23.898Z,96.94
2017-12-08T03:07:04.446Z,96.89
2017-12-08T03:07:45.012Z,96.8
2017-12-08T03:08:25.563Z,96.75
2017-12-08T03:09:06.123Z,96.89
2017-12-08T03:09:46.675Z,97.08
2017-12-08T03:10:27.218Z,96.41
2017-12-08T03:11:07.776Z,95.89
2017-12-08T03:11:48.327Z,96.41
2017-12-08T03:12:28.876Z,96.36
2017-12-08T03:13:09.418Z,96.46
2017-12-08T03:13:49.981Z,96.46
2017-12-08T03:14:30.528Z,96.55
2017-12-08T03:15:11.080Z,96.27
2017-12-08T03:15:51.625Z,96.03
2017-12-08T03:16:32.165Z,95.89
2017-12-08T03:17:12.718Z,96.27
2017-12-08T03:17:53.251Z,95.79
2017-12-08T03:18:33.805Z,95.89
2017-12-08T03:19:14.354Z,95.41
2017-12-08T03:19:54.904Z,95.51
2017-12-08T03:20:35.457Z,95.32
2017-12-08T03:21:16.006Z,95.41
2017-12-08T03:21:56.537Z,95.7
2017-12-08T03:22:37.084Z,95.89
2017-12-08T03:23:17.652Z,95.79
2017-12-08T03:23:58.204Z,95.84
2017-12-08T03:24:38.766Z,95.79
2017-12-08T03:25:19.332Z,95.98
2017-12-08T03:25:59.886Z,96.17
2017-12-08T03:26:40.440Z,96.08
2017-12-08T03:27:20.975Z,96.17
2017-12-08T03:28:01.534Z,96.65
2017-12-08T03:28:42.077Z,95.84
2017-12-08T03:29:22.636Z,95.79
2017-12-08T03:30:03.196Z,95.6
2017-12-08T03:30:43.732Z,96.08
2017-12-08T03:31:24.300Z,95.89
2017-12-08T03:32:04.813Z,95.32
2017-12-08T03:32:45.364Z,95.6
2017-12-08T03:33:25.925Z,95.32
2017-12-08T03:34:06.475Z,95.89
2017-12-08T03:34:47.027Z,96.08
2017-12-08T03:35:27.577Z,95.46
2017-12-08T03:36:08.144Z,95.51
2017-12-08T03:36:48.701Z,95.03
2017-12-08T03:37:29.248Z,94.74
2017-12-08T03:38:09.800Z,94.37
2017-12-08T03:38:50.350Z,95.22
2017-12-08T03:39:30.919Z,95.12
2017-12-08T03:40:11.457Z,94.74
2017-12-08T03:40:52.006Z,94.74
2017-12-08T03:41:32.556Z,94.65
2017-12-08T03:42:13.103Z,94.17
2017-12-08T03:42:53.679Z,94.22
2017-12-08T03:43:34.197Z,94.7
2017-12-08T03:44:14.744Z,94.13
2017-12-08T03:44:55.303Z,94.65
2017-12-08T03:45:35.859Z,94.13
2017-12-08T03:46:16.420Z,94.22
2017-12-08T03:46:56.975Z,93.65
2017-12-08T03:47:37.529Z,93.84
2017-12-08T03:48:18.080Z,93.89
2017-12-08T03:48:58.633Z,93.98
2017-12-08T03:49:39.174Z,94.27
2017-12-08T03:50:19.725Z,94.37
2017-12-08T03:51:00.295Z,94.41
2017-12-08T03:51:40.842Z,93.89
2017-12-08T03:52:21.395Z,93.79
2017-12-08T03:53:01.950Z,93.51
2017-12-08T03:53:42.471Z,93.89
2017-12-08T03:54:23.036Z,93.51
2017-12-08T03:55:04.413Z,93.84
2017-12-08T03:55:45.013Z,92.98
2017-12-08T03:56:25.556Z,93.17
2017-12-08T03:57:06.118Z,93.41
2017-12-08T03:57:46.663Z,93.51
2017-12-08T03:58:27.204Z,93.41
2017-12-08T03:59:07.751Z,92.65
2017-12-08T03:59:48.290Z,92.65
2017-12-08T04:00:28.806Z,92.08
2017-12-08T04:01:09.369Z,92.03
2017-12-08T04:01:49.918Z,92.18
2017-12-08T04:02:30.450Z,91.6
2017-12-08T04:03:11.021Z,91.74
2017-12-08T04:03:51.577Z,91.84
2017-12-08T04:04:32.128Z,91.65
2017-12-08T04:05:12.693Z,91.55
2017-12-08T04:05:53.249Z,91.55
2017-12-08T04:06:33.820Z,91.17
2017-12-08T04:07:14.373Z,90.6
2017-12-08T04:07:54.934Z,91.36
2017-12-08T04:08:35.483Z,91.03
2017-12-08T04:09:16.046Z,91.74
2017-12-08T04:09:56.613Z,90.5
2017-12-08T04:10:37.158Z,90.89
2017-12-08T04:11:17.714Z,90.89
2017-12-08T04:11:58.269Z,90.79
2017-12-08T04:12:38.828Z,90.36
2017-12-08T04:13:19.378Z,90.7
2017-12-08T04:13:59.930Z,91.13
2017-12-08T04:14:40.504Z,90.79
2017-12-08T04:15:21.073Z,90.41
2017-12-08T04:16:01.631Z,90.89
2017-12-08T04:16:42.216Z,90.03
2017-12-08T04:17:22.739Z,90.12
2017-12-08T04:18:03.301Z,89.75
2017-12-08T04:18:43.865Z,89.46
2017-12-08T04:19:24.431Z,89.26
2017-12-08T04:20:04.984Z,88.79
2017-12-08T04:20:45.558Z,89.17
2017-12-08T04:21:26.126Z,88.79
2017-12-08T04:22:06.674Z,88.98
2017-12-08T04:22:47.230Z,89.17
2017-12-08T04:23:27.791Z,89.17
2017-12-08T04:24:08.356Z,89.36
2017-12-08T04:24:48.909Z,89.07
2017-12-08T04:25:29.471Z,89.61
2017-12-08T04:26:10.027Z,89.84
2017-12-08T04:26:50.598Z,89.07
2017-12-08T04:27:31.154Z,89.79
2017-12-08T04:28:11.726Z,89.55
2017-12-08T04:28:52.288Z,89.13
2017-12-08T04:29:32.888Z,89.07
2017-12-08T04:30:13.459Z,89.51
2017-12-08T04:30:53.995Z,89.61
2017-12-08T04:31:34.555Z,89.65
2017-12-08T04:32:15.097Z,89.32
2017-12-08T04:32:55.645Z,89.51
2017-12-08T04:33:36.200Z,89.03
2017-12-08T04:34:16.779Z,89.89
2017-12-08T04:34:57.350Z,89.61
2017-12-08T04:35:37.906Z,89.41
2017-12-08T04:36:18.461Z,89.41
2017-12-08T04:36:59.019Z,89.61
2017-12-08T04:37:39.578Z,89.79
2017-12-08T04:38:20.139Z,89.03
2017-12-08T04:39:00.690Z,89.03
2017-12-08T04:39:41.244Z,89.61
2017-12-08T04:40:21.800Z,89.41
2017-12-08T04:41:02.358Z,89.32
2017-12-08T04:41:42.925Z,89.03
2017-12-08T04:42:23.472Z,89.03
2017-12-08T04:43:04.025Z,88.65
2017-12-08T04:43:44.589Z,88.65
2017-12-08T04:44:25.148Z,89.22
2017-12-08T04:45:05.700Z,89.41
2017-12-08T04:45:46.265Z,88.84
2017-12-08T04:46:26.796Z,88.84
2017-12-08T04:47:07.359Z,89.13
2017-12-08T04:47:47.901Z,89.13
2017-12-08T04:48:28.459Z,88.84
2017-12-08T04:49:09.026Z,89.03
2017-12-08T04:49:49.571Z,87.98
2017-12-08T04:50:30.126Z,88.27
2017-12-08T04:51:10.697Z,88.46
2017-12-08T04:51:51.259Z,88.08
2017-12-08T04:52:31.811Z,87.79
2017-12-08T04:53:12.341Z,87.98
2017-12-08T04:53:52.882Z,87.89
2017-12-08T04:54:33.435Z,87.98
2017-12-08T04:55:13.981Z,87.89
2017-12-08T04:55:54.546Z,87.7
2017-12-08T04:56:35.061Z,87.13
2017-12-08T04:57:15.599Z,87.32
2017-12-08T04:57:56.137Z,87.23
2017-12-08T04:58:36.691Z,87.51
2017-12-08T04:59:17.240Z,87.23
2017-12-08T04:59:57.774Z,87.32
2017-12-08T05:00:38.317Z,86.84
2017-12-08T05:01:18.880Z,87.13
2017-12-08T05:01:59.456Z,86.94
2017-12-08T05:02:40.002Z,87.13
2017-12-08T05:03:20.550Z,86.84
2017-12-08T05:04:01.088Z,86.84
2017-12-08T05:04:41.632Z,86.94
2017-12-08T05:05:22.213Z,86.55
2017-12-08T05:06:02.699Z,86.65
2017-12-08T05:06:43.213Z,86.27
2017-12-08T05:07:23.792Z,86.65
2017-12-08T05:08:04.335Z,87.03
2017-12-08T05:08:44.873Z,86.46
2017-12-08T05:09:25.420Z,86.84
2017-12-08T05:10:05.968Z,86.36
2017-12-08T05:10:46.546Z,86.55
2017-12-08T05:11:27.100Z,86.75
2017-12-08T05:12:07.660Z,86.84
2017-12-08T05:12:48.234Z,86.46
2017-12-08T05:13:28.767Z,86.94
2017-12-08T05:14:09.322Z,87.03
2017-12-08T05:14:49.864Z,86.8
2017-12-08T05:15:30.418Z,86.8
2017-12-08T05:16:10.975Z,86.61
2017-12-08T05:16:51.524Z,86.61
2017-12-08T05:17:32.064Z,86.8
2017-12-08T05:18:12.604Z,86.8
2017-12-08T05:18:53.170Z,86.8
2017-12-08T05:19:33.722Z,86.61
2017-12-08T05:20:14.264Z,86.61
2017-12-08T05:20:54.818Z,86.7
2017-12-08T05:21:35.365Z,86.7
2017-12-08T05:22:15.947Z,86.61
2017-12-08T05:22:56.472Z,86.99
2017-12-08T05:23:37.013Z,87.27
2017-12-08T05:24:17.571Z,87.08
2017-12-08T05:24:58.121Z,86.99
2017-12-08T05:25:38.667Z,87.27
2017-12-08T05:26:19.240Z,86.22
2017-12-08T05:26:59.823Z,86.99
2017-12-08T05:27:40.391Z,86.7
2017-12-08T05:28:20.935Z,86.8
2017-12-08T05:29:01.503Z,86.51
2017-12-08T05:29:42.054Z,86.61
2017-12-08T05:30:22.608Z,86.7
2017-12-08T05:31:03.151Z,86.9
2017-12-08T05:31:43.698Z,87.08
2017-12-08T05:32:24.251Z,86.99
2017-12-08T05:33:04.821Z,86.99
2017-12-08T05:33:45.338Z,86.8
2017-12-08T05:34:25.853Z,86.51
2017-12-08T05:35:06.426Z,86.9
2017-12-08T05:35:46.971Z,86.99
2017-12-08T05:36:27.541Z,86.9
2017-12-08T05:37:08.128Z,86.61
2017-12-08T05:37:48.751Z,86.9
2017-12-08T05:38:29.264Z,86.42
2017-12-08T05:39:09.813Z,86.22
2017-12-08T05:39:50.348Z,86.22
2017-12-08T05:40:30.916Z,86.22
2017-12-08T05:41:11.451Z,86.22
2017-12-08T05:41:52.010Z,86.61
2017-12-08T05:42:32.577Z,86.9
2017-12-08T05:43:13.139Z,87.18
2017-12-08T05:43:53.694Z,86.9
2017-12-08T05:44:34.253Z,86.8
2017-12-08T05:45:14.797Z,86.9
2017-12-08T05:45:55.347Z,86.9
2017-12-08T05:46:35.903Z,86.99
2017-12-08T05:47:16.448Z,86.13
2017-12-08T05:47:56.986Z,86.42
2017-12-08T05:48:37.549Z,86.51
2017-12-08T05:49:18.114Z,86.7
2017-12-08T05:49:58.664Z,86.22
2017-12-08T05:50:39.219Z,86.99
2017-12-08T05:51:19.759Z,86.22
2017-12-08T05:52:00.326Z,86.32
2017-12-08T05:52:40.874Z,86.22
2017-12-08T05:53:21.431Z,86.7
2017-12-08T05:54:01.987Z,86.9
2017-12-08T05:54:42.529Z,86.8
2017-12-08T05:55:23.078Z,86.8
2017-12-08T05:56:03.622Z,86.9
2017-12-08T05:56:44.187Z,86.9
2017-12-08T05:57:24.717Z,86.9
2017-12-08T05:58:05.276Z,86.7
2017-12-08T05:58:45.815Z,86.61
2017-12-08T05:59:26.361Z,86.22
2017-12-08T06:00:06.924Z,86.8
2017-12-08T06:00:47.470Z,86.9
2017-12-08T06:01:28.021Z,87.08
2017-12-08T06:02:08.570Z,87.75
2017-12-08T06:02:49.126Z,87.27
2017-12-08T06:03:29.706Z,87.27
2017-12-08T06:04:10.226Z,87.37
2017-12-08T06:04:50.793Z,87.18
2017-12-08T06:05:31.367Z,87.37
2017-12-08T06:06:11.919Z,87.65
2017-12-08T06:06:52.408Z,88.04
2017-12-08T06:07:32.998Z,88.23
2017-12-08T06:08:14.447Z,87.37
2017-12-08T06:08:54.090Z,87.46
2017-12-08T06:09:34.654Z,87.94
2017-12-08T06:10:15.209Z,87.75
2017-12-08T06:10:55.783Z,87.65
2017-12-08T06:11:36.323Z,88.23
2017-12-08T06:12:16.867Z,88.09
2017-12-08T06:12:57.418Z,88.09
2017-12-08T06:13:37.964Z,88.13
2017-12-08T06:14:18.521Z,88.13
2017-12-08T06:14:59.085Z,88.18
2017-12-08T06:15:39.633Z,88.32
2017-12-08T06:16:20.181Z,88.09
2017-12-08T06:17:00.732Z,88.46
2017-12-08T06:17:41.289Z,88.28
2017-12-08T06:18:21.837Z,87.71
2017-12-08T06:19:02.417Z,88.09
2017-12-08T06:19:42.935Z,88.18
2017-12-08T06:20:23.480Z,88.18
2017-12-08T06:21:04.042Z,88.18
2017-12-08T06:21:44.533Z,88.09
2017-12-08T06:22:25.133Z,88.37
2017-12-08T06:23:05.686Z,88.75
2017-12-08T06:23:46.310Z,88.56
2017-12-08T06:24:26.863Z,88.56
2017-12-08T06:25:07.414Z,88.56
2017-12-08T06:25:47.961Z,88.75
2017-12-08T06:26:28.525Z,88.46
2017-12-08T06:27:09.068Z,88.46
2017-12-08T06:27:49.643Z,88.18
2017-12-08T06:28:30.200Z,87.99
2017-12-08T06:29:10.767Z,88.56
2017-12-08T06:29:51.331Z,88.66
2017-12-08T06:30:31.872Z,88.56
2017-12-08T06:31:12.451Z,88.66
2017-12-08T06:31:52.959Z,88.75
2017-12-08T06:32:33.542Z,88.46
2017-12-08T06:33:14.114Z,88.46
2017-12-08T06:33:54.684Z,88.75
2017-12-08T06:34:35.237Z,88.09
2017-12-08T06:35:15.829Z,88.28
2017-12-08T06:35:56.399Z,88.56
2017-12-08T06:36:36.969Z,88.56
2017-12-08T06:37:17.539Z,88.75
2017-12-08T06:37:58.092Z,88.94
2017-12-08T06:38:38.655Z,89.14
2017-12-08T06:39:19.218Z,89.23
2017-12-08T06:39:59.788Z,88.56
2017-12-08T06:40:40.351Z,88.46
2017-12-08T06:41:20.913Z,89.04
2017-12-08T06:42:01.486Z,89.42
2017-12-08T06:42:42.048Z,89.14
2017-12-08T06:43:22.610Z,89.04
2017-12-08T06:44:03.160Z,89.04
2017-12-08T06:44:43.738Z,89.42
2017-12-08T06:45:24.283Z,89.04
2017-12-08T06:46:04.839Z,88.85
2017-12-08T06:46:45.411Z,90.28
2017-12-08T06:47:25.968Z,90.75
2017-12-08T06:48:06.532Z,91.03
2017-12-08T06:48:47.146Z,91.03
2017-12-08T06:49:27.714Z,91.51
2017-12-08T06:50:08.276Z,92.46
2017-12-08T06:50:48.945Z,92.36
2017-12-08T06:51:29.495Z,91.61
2017-12-08T06:52:10.101Z,90.75
2017-12-08T06:52:50.676Z,89.89
2017-12-08T06:53:31.308Z,90.84
2017-12-08T06:54:11.814Z,90.28
2017-12-08T06:54:52.373Z,89.14
2017-12-08T06:55:32.924Z,89.89
2017-12-08T06:56:13.523Z,89.89
2017-12-08T06:56:54.039Z,89.8
2017-12-08T06:57:34.598Z,89.51
2017-12-08T06:58:15.245Z,88.28
2017-12-08T06:58:55.774Z,88.46
2017-12-08T06:59:36.408Z,88.04
2017-12-08T07:00:16.964Z,88.46
2017-12-08T07:00:57.531Z,89.7
2017-12-08T07:01:38.109Z,89.09
2017-12-08T07:02:18.660Z,88.71
2017-12-08T07:02:59.236Z,88.94
2017-12-08T07:03:39.784Z,88.18
2017-12-08T07:04:20.377Z,87.23
2017-12-08T07:05:00.948Z,88.04
2017-12-08T07:05:42.452Z,87.61
2017-12-08T07:06:23.061Z,87.95
2017-12-08T07:07:03.619Z,87.99
2017-12-08T07:07:44.169Z,88.66
2017-12-08T07:08:24.737Z,88.09
2017-12-08T07:09:05.303Z,87.8
2017-12-08T07:09:45.866Z,87.8
2017-12-08T07:10:26.435Z,87.99
2017-12-08T07:11:07.020Z,87.57
2017-12-08T07:11:47.573Z,87.52
2017-12-08T07:12:28.138Z,88.23
2017-12-08T07:13:08.695Z,87.32
2017-12-08T07:13:49.265Z,87.32
2017-12-08T07:14:29.861Z,87.09
2017-12-08T07:15:10.413Z,88.13
2017-12-08T07:15:50.976Z,87.99
2017-12-08T07:16:31.532Z,87.47
2017-12-08T07:17:12.092Z,87.38
2017-12-08T07:17:52.654Z,87.95
2017-12-08T07:18:33.215Z,88.52
2017-12-08T07:19:13.788Z,88.46
2017-12-08T07:19:54.357Z,88.56
2017-12-08T07:20:34.938Z,89.51
2017-12-08T07:21:15.506Z,89.37
2017-12-08T07:21:56.065Z,89.8
2017-12-08T07:22:36.638Z,91.03
2017-12-08T07:23:17.196Z,90.42
2017-12-08T07:23:57.747Z,90.42
2017-12-08T07:24:38.531Z,90.84
2017-12-08T07:25:19.137Z,93.04
2017-12-08T07:26:00.586Z,93.32
2017-12-08T07:26:41.202Z,92.36
2017-12-08T07:27:21.766Z,91.61
2017-12-08T07:28:02.348Z,93.98
2017-12-08T07:28:42.963Z,99.99
2017-12-08T07:29:23.473Z,99.99
2017-12-08T07:30:04.035Z,99.99
2017-12-08T07:30:45.464Z,99.99
2017-12-08T07:31:25.196Z,99.99
2017-12-08T07:32:05.758Z,99.99
2017-12-08T07:32:46.344Z,99.99
2017-12-08T07:33:26.895Z,99.99
2017-12-08T07:34:07.469Z,99.99
2017-12-08T07:34:48.032Z,99.99
2017-12-08T07:35:28.591Z,99.99
2017-12-08T07:36:09.155Z,99.99
2017-12-08T07:36:49.734Z,99.99
2017-12-08T07:37:30.294Z,99.99
2017-12-08T07:38:10.931Z,99.99
2017-12-08T07:38:51.555Z,99.99
2017-12-08T07:39:32.234Z,99.99
2017-12-08T07:40:12.670Z,98.08
2017-12-08T07:40:53.213Z,96.74
2017-12-08T07:41:33.784Z,99.99
2017-12-08T07:42:14.346Z,99.99
2017-12-08T07:42:54.910Z,99.99
2017-12-08T07:43:35.473Z,99.99
2017-12-08T07:44:16.037Z,99.99
2017-12-08T07:44:56.604Z,99.99
2017-12-08T07:45:37.158Z,99.99
2017-12-08T07:46:17.719Z,99.99
2017-12-08T07:46:58.287Z,99.99
2017-12-08T07:47:38.862Z,99.99
2017-12-08T07:48:19.433Z,99.99
2017-12-08T07:48:59.995Z,99.99
2017-12-08T07:49:40.563Z,99.99
2017-12-08T07:50:21.111Z,99.99
2017-12-08T07:51:01.662Z,98.69
2017-12-08T07:51:42.230Z,98.03
2017-12-08T07:52:22.794Z,97.46
2017-12-08T07:53:03.408Z,94.7
2017-12-08T07:53:43.997Z,92.41
2017-12-08T07:54:24.554Z,92.41
2017-12-08T07:55:05.115Z,88.13
2017-12-08T07:55:45.675Z,86.22
2017-12-08T07:56:26.282Z,86.8
2017-12-08T07:57:06.888Z,87.85
2017-12-08T07:57:47.485Z,88.7
2017-12-08T07:58:28.096Z,99.99
2017-12-08T07:59:08.641Z,99.99
2017-12-08T07:59:49.206Z,99.99
2017-12-08T08:00:29.770Z,99.99
2017-12-08T08:01:10.344Z,99.99
2017-12-08T08:01:50.908Z,99.99
2017-12-08T08:02:31.501Z,99.99
2017-12-08T08:03:12.078Z,99.99
2017-12-08T08:03:52.660Z,95.6
2017-12-08T08:04:33.232Z,93.51
2017-12-08T08:05:13.815Z,93.13
2017-12-08T08:05:54.381Z,91.51
2017-12-08T08:06:34.946Z,90.36
2017-12-08T08:07:15.503Z,88.65
2017-12-08T08:07:56.076Z,87.98
2017-12-08T08:08:36.669Z,86.22
2017-12-08T08:09:17.205Z,85.28
2017-12-08T08:09:57.745Z,84.8
2017-12-08T08:10:38.294Z,84.42
2017-12-08T08:11:18.906Z,85.28
2017-12-08T08:11:59.469Z,86.32
2017-12-08T08:12:40.035Z,86.51
2017-12-08T08:13:20.612Z,86.65
2017-12-08T08:14:01.197Z,86.08
2017-12-08T08:14:41.748Z,86.75
2017-12-08T08:15:22.312Z,84.84
2017-12-08T08:16:02.881Z,86.13
2017-12-08T08:16:43.437Z,87.27
2017-12-08T08:17:23.999Z,86.61
2017-12-08T08:18:04.558Z,99.32
2017-12-08T08:18:45.131Z,99.99
2017-12-08T08:19:25.695Z,99.99
2017-12-08T08:20:06.253Z,99.99
2017-12-08T08:20:46.828Z,99.99
2017-12-08T08:21:27.374Z,99.99
2017-12-08T08:22:07.936Z,99.99
2017-12-08T08:22:48.499Z,99.99
2017-12-08T08:23:29.075Z,99.99
2017-12-08T08:24:09.634Z,99.99
2017-12-08T08:24:50.187Z,98.99
2017-12-08T08:25:30.758Z,94.22
2017-12-08T08:26:11.332Z,92.5
2017-12-08T08:26:51.897Z,89.51
2017-12-08T08:27:32.478Z,88.31
2017-12-08T08:28:13.046Z,86.84
2017-12-08T08:28:53.557Z,89.61
2017-12-08T08:29:34.118Z,99.99
2017-12-08T08:30:14.704Z,99.99
2017-12-08T08:30:55.264Z,99.99
2017-12-08T08:31:35.816Z,99.99
2017-12-08T08:32:16.382Z,99.99
2017-12-08T08:32:56.942Z,99.99
2017-12-08T08:33:37.516Z,99.99
2017-12-08T08:34:18.061Z,99.99
2017-12-08T08:34:58.620Z,99.99
2017-12-08T08:35:39.179Z,99.99
2017-12-08T08:36:19.743Z,99.99
2017-12-08T08:37:00.314Z,99.99
2017-12-08T08:37:40.884Z,99.99
2017-12-08T08:38:21.454Z,99.99
2017-12-08T08:39:02.019Z,99.99
2017-12-08T08:39:42.662Z,99.18
2017-12-08T08:40:23.211Z,92.98
2017-12-08T08:41:03.790Z,86.98
2017-12-08T08:41:44.345Z,88.51
2017-12-08T08:42:24.901Z,88.37
2017-12-08T08:43:05.452Z,89.84
2017-12-08T08:43:46.011Z,88.6